Impacts METAR Board
IDs:

KSTL - St Louis/Lambert Int, MO, US

Updated at: 0300 UTC 17 Jul 2018
Potential Impact None Slight Moderate High
Time 16/15Z 16/16Z 16/17Z 16/18Z 16/19Z 16/20Z 16/21Z 16/22Z 16/23Z 17/00Z 17/01Z 17/02Z 17/03Z
Temp88 88 91 92 93 94 94 94 88 87 85 83 81
Dewpt76 75 73 71 70 67 66 63 71 71 69 71 71
Altim29.99 30.00 29.99 29.98 29.97 29.95 29.94 29.93 29.92 29.96 29.96 29.97 29.99
VIS10 10 10 10 10 10 10 10 10 10 10 10 10
CIG-- 70 -- -- -- -- -- -- -- 250 -- -- --
CoverSCTBKNSCTSCTSCTSCTSCTSCTSCTBKNSCTSCTSCT
FltCatVFRVFRVFRVFRVFRVFRVFRVFRVFRVFRVFRVFRVFR
WX--------------------------
WDir330340320340360330350350360301036070
WSpd7 7 6 9 7 5 9 10 16 8 8 6 3
WGst-- -- -- -- -- 15 -- -- -- -- -- -- --
Raw hourly METARs
KSTL 161451Z 33007KT 10SM FEW030 FEW080 SCT250 31/24 A2999 RMK AO2 SLP141 ACC W T03110244 51008
KSTL 161551Z 34007KT 300V360 10SM FEW023 BKN070 BKN250 31/24 A3000 RMK AO2 SLP143 T03110239
KSTL 161651Z 32006KT 10SM FEW031 SCT075 SCT250 33/23 A2999 RMK AO2 SLP142 T03280228
KSTL 161751Z 34009KT 10SM SCT040 SCT250 33/22 A2998 RMK AO2 SLP137 T03330217 10339 20261 58004
KSTL 161851Z 36007KT 10SM SCT049 SCT100 SCT250 34/21 A2997 RMK AO2 SLP131 T03390211
KSTL 161951Z 33005G15KT 10SM FEW050 FEW100 SCT250 34/19 A2995 RMK AO2 SLP126 TCU DSNT NW-NE T03440194
KSTL 162051Z 35009KT 10SM FEW050 FEW100 SCT250 34/19 A2994 RMK AO2 SLP125 CB DSNT NW-E MOV SE T03440189 56012
KSTL 162151Z 35010KT 10SM FEW055TCU FEW100 SCT250 34/17 A2993 RMK AO2 SLP120 CB DSNT N-NE AND DSNT S MOV SE TCU N-NE T03440172
KSTL 162251Z 36016KT 10SM FEW050TCU SCT120 SCT250 31/22 A2992 RMK AO2 PK WND 35028/2241 SLP119 TCU SW-W T03110217
KSTL 162351Z 03008KT 10SM FEW050TCU SCT120 BKN250 31/22 A2996 RMK AO2 SLP130 TCU SW T03060217 10350 20306 53004
KSTL 170051Z 01008KT 10SM FEW050CB FEW120 SCT250 29/21 A2996 RMK AO2 SLP131 CB S MOV SE TCU DSNT N AND SW T02940206
KSTL 170151Z 36006KT 10SM FEW050 FEW120 SCT250 28/22 A2997 RMK AO2 SLP133 CB DSNT S MOV SE T02830217
KSTL 170251Z 07003KT 10SM FEW050 FEW120 SCT250 27/22 A2999 RMK AO2 SLP141 OCNL LTGICCC DSNT SE-S CB DSNT SE-S MOV SE T02720217 53012



Page loaded:  03:46 UTC  |   08:46 PM Pacific  |   09:46 PM Mountain  |   10:46 PM Central  |   11:46 PM Eastern

 

ADVISORIES

FORECASTS

FORECASTS

OBSERVATIONS

USER TOOLS

ABOUT US